Time;durP1;ratioP1;P1;durP2;ratioP2;P2;SDS_P1;SDS_P2;PMS_P1;PMS_P2;Temp;Humidity;BMP_temperature;BMP_pressure;BME280_temperature;BME280_humidity;BME280_pressure;Samples;Min_cycle;Max_cycle;Signal;HPM_P1;HPM_P2
2022/07/23 00:00:46;;;;;;;;;;;;;;;29.45;37.27;100802.44;104751;1306;61288;-82
2022/07/23 00:03:13;;;;;;;;;;;;;;;29.44;37.27;100802.27;104823;1306;61355;-82
2022/07/23 00:05:38;;;;;;;;;;;;;;;29.45;37.25;100802.41;104820;1306;61514;-82
2022/07/23 00:08:04;;;;;;;;;;;;;;;29.45;37.42;100807.88;104844;1305;61284;-82
2022/07/23 00:10:30;;;;;;;;;;;;;;;29.45;37.37;100808.42;104798;1306;61169;-82
2022/07/23 00:12:55;;;;;;;;;;;;;;;29.44;37.38;100806.69;104785;1305;61311;-82
2022/07/23 00:15:21;;;;;;;;;;;;;;;29.44;37.23;100809.75;104786;1306;61277;-82
2022/07/23 00:17:46;;;;;;;;;;;;;;;29.43;37.42;100808.90;104797;1306;61307;-82
2022/07/23 00:20:13;;;;;;;;;;;;;;;29.44;37.34;100812.84;104832;1305;61391;-82
2022/07/23 00:22:48;;;;;;;;;;;;;;;29.44;37.43;100810.49;104870;1306;61144;-82
2022/07/23 00:25:13;;;;;;;;;;;;;;;29.43;37.48;100818.48;104777;1304;72810;-82
2022/07/23 00:27:39;;;;;;;;;;;;;;;29.43;37.34;100817.81;104850;1305;61389;-82
2022/07/23 00:30:04;;;;;;;;;;;;;;;29.43;37.34;100821.59;104862;1306;61313;-83
2022/07/23 00:32:30;;;;;;;;;;;;;;;29.43;37.53;100822.50;104698;1306;61291;-82
2022/07/23 00:34:55;;;;;;;;;;;;;;;29.43;37.40;100822.54;104721;1305;60465;-82
2022/07/23 00:37:21;;;;;;;;;;;;;;;29.43;37.49;100823.25;104843;1306;72582;-82
2022/07/23 00:39:46;;;;;;;;;;;;;;;29.43;37.49;100823.08;104861;1305;61470;-83
2022/07/23 00:42:11;;;;;;;;;;;;;;;29.43;37.37;100824.55;104791;1305;61288;-81
2022/07/23 00:44:37;;;;;;;;;;;;;;;29.43;37.47;100826.41;104813;1306;61423;-83
2022/07/23 00:47:02;;;;;;;;;;;;;;;29.43;37.57;100824.04;104901;1305;61307;-82
2022/07/23 00:49:29;;;;;;;;;;;;;;;29.43;37.46;100823.12;104654;1306;62154;-82
2022/07/23 00:51:54;;;;;;;;;;;;;;;29.42;37.63;100822.46;104840;1305;61368;-82
2022/07/23 00:54:21;;;;;;;;;;;;;;;29.43;37.54;100828.77;104812;1306;61258;-82
2022/07/23 00:56:47;;;;;;;;;;;;;;;29.42;37.37;100823.89;104702;1306;61295;-82
2022/07/23 00:59:13;;;;;;;;;;;;;;;29.42;37.80;100820.99;104803;1306;61256;-82
2022/07/23 01:01:38;;;;;;;;;;;;;;;29.42;37.55;100820.97;104811;1306;61262;-82
2022/07/23 01:04:04;;;;;;;;;;;;;;;29.42;37.69;100815.26;104786;1306;61329;-82
2022/07/23 01:06:30;;;;;;;;;;;;;;;29.42;37.58;100815.97;104712;1306;61347;-82
2022/07/23 01:08:56;;;;;;;;;;;;;;;29.42;37.44;100813.77;104677;1306;62708;-82
2022/07/23 01:11:22;;;;;;;;;;;;;;;29.41;37.59;100812.90;104843;1305;61275;-82
2022/07/23 01:13:48;;;;;;;;;;;;;;;29.41;37.75;100810.04;104802;1306;61306;-82
2022/07/23 01:16:13;;;;;;;;;;;;;;;29.42;37.50;100809.44;104807;1306;61374;-82
2022/07/23 01:18:39;;;;;;;;;;;;;;;29.41;37.75;100815.08;104776;1306;61335;-82
2022/07/23 01:21:04;;;;;;;;;;;;;;;29.41;37.64;100815.45;104894;1306;61237;-82
2022/07/23 01:23:30;;;;;;;;;;;;;;;29.41;37.59;100815.31;104774;1306;73762;-82
2022/07/23 01:25:55;;;;;;;;;;;;;;;29.41;37.74;100816.36;104761;1306;61410;-82
2022/07/23 01:28:21;;;;;;;;;;;;;;;29.41;37.60;100817.66;104649;1306;61400;-82
2022/07/23 01:30:46;;;;;;;;;;;;;;;29.41;37.68;100814.64;104784;1306;61368;-82
2022/07/23 01:33:12;;;;;;;;;;;;;;;29.41;37.55;100813.13;104675;1306;61278;-82
2022/07/23 01:35:37;;;;;;;;;;;;;;;29.40;37.79;100808.28;104639;1306;61132;-82
2022/07/23 01:38:03;;;;;;;;;;;;;;;29.40;37.73;100811.39;104794;1306;61760;-82
2022/07/23 01:40:28;;;;;;;;;;;;;;;29.40;37.71;100809.58;104644;1306;61294;-82
2022/07/23 01:42:53;;;;;;;;;;;;;;;29.40;37.50;100815.77;104633;1306;61294;-82
2022/07/23 01:45:19;;;;;;;;;;;;;;;29.40;37.57;100813.95;104821;1306;61376;-82
2022/07/23 01:47:46;;;;;;;;;;;;;;;29.40;37.76;100814.70;104764;1306;61441;-82
2022/07/23 01:50:11;;;;;;;;;;;;;;;29.40;37.62;100821.57;104636;1306;74832;-82
2022/07/23 01:52:36;;;;;;;;;;;;;;;29.40;37.89;100817.25;104772;1305;61279;-82
2022/07/23 01:55:02;;;;;;;;;;;;;;;29.40;37.69;100820.34;104846;1304;61251;-82
2022/07/23 01:57:28;;;;;;;;;;;;;;;29.40;37.97;100822.55;104895;1305;61345;-82
2022/07/23 01:59:53;;;;;;;;;;;;;;;29.40;37.78;100824.89;104846;1305;61395;-82
2022/07/23 02:02:19;;;;;;;;;;;;;;;29.40;37.86;100825.58;104807;1305;74653;-82
2022/07/23 02:04:44;;;;;;;;;;;;;;;29.40;37.99;100826.69;105137;1306;61369;-83
2022/07/23 02:07:10;;;;;;;;;;;;;;;29.40;37.58;100823.77;105079;1305;61327;-83
2022/07/23 02:09:36;;;;;;;;;;;;;;;29.40;37.63;100826.50;105155;1306;59538;-83
2022/07/23 02:12:02;;;;;;;;;;;;;;;29.40;38.12;100824.29;105030;1306;61304;-83
2022/07/23 02:14:27;;;;;;;;;;;;;;;29.41;37.74;100826.77;105126;1306;59216;-83
2022/07/23 02:16:53;;;;;;;;;;;;;;;29.41;37.78;100828.75;105172;1306;61399;-83
2022/07/23 02:19:18;;;;;;;;;;;;;;;29.41;37.94;100830.88;104953;1306;61371;-83
2022/07/23 02:21:44;;;;;;;;;;;;;;;29.42;37.85;100828.27;104683;1306;61405;-83
2022/07/23 02:24:09;;;;;;;;;;;;;;;29.42;37.90;100831.88;104858;1306;61295;-83
2022/07/23 02:26:35;;;;;;;;;;;;;;;29.42;37.81;100833.33;104874;1305;63086;-82
2022/07/23 02:29:01;;;;;;;;;;;;;;;29.42;37.87;100832.99;104848;1306;61310;-82
2022/07/23 02:31:28;;;;;;;;;;;;;;;29.41;37.90;100833.77;104676;1306;61284;-82
2022/07/23 02:33:53;;;;;;;;;;;;;;;29.41;37.84;100832.30;104862;1305;61284;-82
2022/07/23 02:36:19;;;;;;;;;;;;;;;29.41;37.79;100836.11;104632;1305;61311;-82
2022/07/23 02:38:45;;;;;;;;;;;;;;;29.41;37.95;100837.61;104878;1305;61394;-82
2022/07/23 02:41:10;;;;;;;;;;;;;;;29.41;37.90;100836.02;104864;1305;61260;-82
2022/07/23 02:43:36;;;;;;;;;;;;;;;29.40;37.93;100834.42;104772;1304;61272;-82
2022/07/23 02:46:01;;;;;;;;;;;;;;;29.40;37.78;100840.40;104851;1306;61284;-82
2022/07/23 02:48:27;;;;;;;;;;;;;;;29.40;37.87;100840.09;104836;1305;61320;-82
2022/07/23 02:50:52;;;;;;;;;;;;;;;29.40;37.77;100838.46;104805;1306;61464;-82
2022/07/23 02:53:18;;;;;;;;;;;;;;;29.40;37.99;100839.58;104840;1306;61264;-82
2022/07/23 02:55:43;;;;;;;;;;;;;;;29.39;37.86;100839.81;104791;1306;61391;-82
2022/07/23 02:58:09;;;;;;;;;;;;;;;29.39;37.92;100838.18;104818;1306;61243;-82
2022/07/23 03:00:35;;;;;;;;;;;;;;;29.39;37.96;100840.73;104809;1306;75703;-82
2022/07/23 03:03:00;;;;;;;;;;;;;;;29.38;37.96;100843.14;104843;1305;61377;-82
2022/07/23 03:05:26;;;;;;;;;;;;;;;29.38;38.03;100844.44;104819;1306;61278;-82
2022/07/23 03:07:51;;;;;;;;;;;;;;;29.38;37.80;100844.46;104828;1305;61261;-82
2022/07/23 03:10:17;;;;;;;;;;;;;;;29.38;37.90;100846.48;104843;1306;61795;-82
2022/07/23 03:12:42;;;;;;;;;;;;;;;29.38;38.21;100847.39;104815;1306;61272;-82
2022/07/23 03:15:08;;;;;;;;;;;;;;;29.38;37.91;100849.73;104836;1306;61243;-82
2022/07/23 03:17:33;;;;;;;;;;;;;;;29.38;37.84;100852.11;104760;1306;61430;-82
2022/07/23 03:19:59;;;;;;;;;;;;;;;29.38;37.93;100857.34;104851;1306;61323;-82
2022/07/23 03:22:24;;;;;;;;;;;;;;;29.38;37.91;100864.42;104684;1306;61368;-82
2022/07/23 03:24:56;;;;;;;;;;;;;;;29.38;38.14;100863.71;104781;1306;75613;-81
2022/07/23 03:27:22;;;;;;;;;;;;;;;29.38;38.15;100861.70;104864;1305;61242;-82
2022/07/23 03:29:48;;;;;;;;;;;;;;;29.38;37.87;100869.15;104712;1306;61345;-82
2022/07/23 03:32:14;;;;;;;;;;;;;;;29.38;37.96;100872.79;104793;1306;61308;-82
2022/07/23 03:34:39;;;;;;;;;;;;;;;29.38;37.97;100878.05;104845;1306;61258;-81
2022/07/23 03:37:05;;;;;;;;;;;;;;;29.38;37.80;100886.14;104832;1306;61148;-81
2022/07/23 03:39:31;;;;;;;;;;;;;;;29.38;38.19;100885.10;104856;1306;61233;-83
2022/07/23 03:41:56;;;;;;;;;;;;;;;29.38;37.92;100886.92;104852;1306;61297;-83
2022/07/23 03:44:22;;;;;;;;;;;;;;;29.38;38.17;100887.77;104855;1306;61351;-83
2022/07/23 03:46:48;;;;;;;;;;;;;;;29.38;37.97;100891.40;104792;1305;61341;-82
2022/07/23 03:49:13;;;;;;;;;;;;;;;29.38;38.15;100884.67;104857;1306;61374;-81
2022/07/23 03:51:39;;;;;;;;;;;;;;;29.38;38.04;100885.77;104847;1305;61284;-82
2022/07/23 03:54:04;;;;;;;;;;;;;;;29.38;38.02;100888.52;104853;1305;61288;-82
2022/07/23 03:56:30;;;;;;;;;;;;;;;29.38;38.01;100887.98;104874;1305;61936;-81
2022/07/23 03:58:55;;;;;;;;;;;;;;;29.38;37.94;100884.67;104816;1306;61242;-82
2022/07/23 04:01:21;;;;;;;;;;;;;;;29.38;38.00;100885.64;104816;1306;61282;-83
2022/07/23 04:03:46;;;;;;;;;;;;;;;29.38;38.05;100883.45;104802;1304;61259;-82
2022/07/23 04:06:12;;;;;;;;;;;;;;;29.38;38.05;100887.09;104852;1306;61190;-82
2022/07/23 04:08:37;;;;;;;;;;;;;;;29.38;38.02;100888.52;104824;1306;61464;-82
2022/07/23 04:11:03;;;;;;;;;;;;;;;29.38;38.21;100896.48;104870;1305;61265;-82
2022/07/23 04:13:28;;;;;;;;;;;;;;;29.38;38.12;100897.60;104820;1306;62015;-82
2022/07/23 04:15:54;;;;;;;;;;;;;;;29.38;38.21;100898.52;104798;1306;61245;-82
2022/07/23 04:18:21;;;;;;;;;;;;;;;29.38;38.22;100899.36;104867;1305;61269;-82
2022/07/23 04:20:47;;;;;;;;;;;;;;;29.39;38.19;100897.11;104788;1306;61148;-82
2022/07/23 04:23:12;;;;;;;;;;;;;;;29.39;38.09;100899.11;104839;1306;61285;-82
2022/07/23 04:25:38;;;;;;;;;;;;;;;29.39;38.22;100903.23;104903;1304;61247;-82
2022/07/23 04:28:03;;;;;;;;;;;;;;;29.39;38.09;100898.89;104882;1304;61278;-83
2022/07/23 04:30:29;;;;;;;;;;;;;;;29.40;38.12;100897.95;104784;1305;61300;-82
2022/07/23 04:32:54;;;;;;;;;;;;;;;29.40;38.15;100901.73;104630;1306;61435;-82
2022/07/23 04:35:20;;;;;;;;;;;;;;;29.40;38.29;100900.98;104821;1304;61464;-82
2022/07/23 04:37:46;;;;;;;;;;;;;;;29.41;38.25;100901.48;104800;1305;61319;-82
2022/07/23 04:40:12;;;;;;;;;;;;;;;29.40;38.14;100903.11;104709;1306;61397;-82
2022/07/23 04:42:37;;;;;;;;;;;;;;;29.41;38.28;100910.52;104801;1306;61236;-82
2022/07/23 04:45:04;;;;;;;;;;;;;;;29.41;38.24;100914.98;104798;1306;61282;-82
2022/07/23 04:47:30;;;;;;;;;;;;;;;29.42;38.32;100909.67;104892;1306;62972;-82
2022/07/23 04:49:56;;;;;;;;;;;;;;;29.42;38.27;100911.07;104812;1305;61253;-82
2022/07/23 04:52:21;;;;;;;;;;;;;;;29.43;38.12;100910.88;104779;1306;61435;-82
2022/07/23 04:54:47;;;;;;;;;;;;;;;29.42;38.26;100914.67;104861;1305;61232;-82
2022/07/23 04:57:12;;;;;;;;;;;;;;;29.44;38.40;100917.48;104865;1304;61316;-82
2022/07/23 04:59:38;;;;;;;;;;;;;;;29.44;38.21;100922.86;104765;1306;62776;-82
2022/07/23 05:02:03;;;;;;;;;;;;;;;29.45;38.22;100924.95;104796;1305;59304;-82
2022/07/23 05:04:29;;;;;;;;;;;;;;;29.46;38.21;100925.09;104866;1305;61268;-82
2022/07/23 05:06:54;;;;;;;;;;;;;;;29.46;37.95;100927.36;104859;1304;61284;-82
2022/07/23 05:09:20;;;;;;;;;;;;;;;29.46;38.17;100926.63;104836;1305;62471;-82
2022/07/23 05:11:45;;;;;;;;;;;;;;;29.47;38.23;100929.11;104819;1306;61284;-82
2022/07/23 05:14:12;;;;;;;;;;;;;;;29.48;38.26;100932.61;104778;1306;61411;-82
2022/07/23 05:16:38;;;;;;;;;;;;;;;29.49;38.35;100931.80;104874;1306;61221;-82
2022/07/23 05:19:03;;;;;;;;;;;;;;;29.49;38.17;100929.02;104792;1306;61971;-82
2022/07/23 05:21:29;;;;;;;;;;;;;;;29.50;38.36;100930.94;104699;1305;61338;-82
2022/07/23 05:23:54;;;;;;;;;;;;;;;29.51;38.29;100928.48;104816;1306;61404;-82
2022/07/23 05:26:21;;;;;;;;;;;;;;;29.52;38.31;100931.52;104784;1306;61344;-82
2022/07/23 05:28:46;;;;;;;;;;;;;;;29.53;38.20;100934.84;104862;1304;61284;-82
2022/07/23 05:31:11;;;;;;;;;;;;;;;29.53;38.27;100932.97;104655;1306;61279;-82
2022/07/23 05:33:37;;;;;;;;;;;;;;;29.54;38.33;100938.16;104805;1306;61282;-82
2022/07/23 05:36:04;;;;;;;;;;;;;;;29.55;38.23;100938.05;104767;1306;61352;-82
2022/07/23 05:38:30;;;;;;;;;;;;;;;29.55;38.44;100937.08;104803;1306;61221;-82
2022/07/23 05:40:55;;;;;;;;;;;;;;;29.56;38.40;100939.73;104801;1305;61370;-82
2022/07/23 05:43:21;;;;;;;;;;;;;;;29.56;38.21;100942.77;104838;1304;61331;-82
2022/07/23 05:45:46;;;;;;;;;;;;;;;29.57;38.41;100941.57;104804;1305;61213;-82
2022/07/23 05:48:11;;;;;;;;;;;;;;;29.59;38.43;100938.92;104870;1305;61310;-82
2022/07/23 05:50:37;;;;;;;;;;;;;;;29.60;38.37;100940.99;104815;1306;61079;-82
2022/07/23 05:53:03;;;;;;;;;;;;;;;29.60;38.39;100944.91;104867;1306;61141;-82
2022/07/23 05:55:31;;;;;;;;;;;;;;;29.61;38.53;100944.16;104644;1306;61387;-82
2022/07/23 05:57:58;;;;;;;;;;;;;;;29.62;38.35;100943.73;104798;1306;61404;-82
2022/07/23 06:00:24;;;;;;;;;;;;;;;29.62;38.30;100947.34;104787;1305;61134;-82
2022/07/23 06:02:49;;;;;;;;;;;;;;;29.63;38.37;100952.13;104705;1306;62493;-82
2022/07/23 06:05:15;;;;;;;;;;;;;;;29.63;38.48;100951.49;104640;1306;61285;-82
2022/07/23 06:07:40;;;;;;;;;;;;;;;29.64;38.27;100953.02;104847;1306;61930;-82
2022/07/23 06:10:06;;;;;;;;;;;;;;;29.65;38.41;100950.44;104862;1306;61371;-82
2022/07/23 06:12:32;;;;;;;;;;;;;;;29.66;38.34;100950.34;104878;1306;61387;-82
2022/07/23 06:14:57;;;;;;;;;;;;;;;29.66;38.23;100948.81;104837;1306;61284;-82
2022/07/23 06:17:23;;;;;;;;;;;;;;;29.67;38.38;100951.49;104789;1306;61285;-82
2022/07/23 06:19:48;;;;;;;;;;;;;;;29.67;38.37;100948.55;104908;1305;61247;-82
2022/07/23 06:22:14;;;;;;;;;;;;;;;29.68;38.32;100950.63;104535;1306;61261;-82
2022/07/23 06:24:39;;;;;;;;;;;;;;;29.68;38.47;100954.41;104858;1304;62117;-82
2022/07/23 06:27:05;;;;;;;;;;;;;;;29.69;38.37;100951.11;104845;1306;61286;-82
2022/07/23 06:29:30;;;;;;;;;;;;;;;29.70;38.36;100950.81;104602;1305;311414;-82
2022/07/23 06:31:55;;;;;;;;;;;;;;;29.70;38.58;100952.41;104900;1305;61304;-82
2022/07/23 06:34:21;;;;;;;;;;;;;;;29.71;38.48;100952.33;104765;1306;61268;-82
2022/07/23 06:36:46;;;;;;;;;;;;;;;29.71;38.37;100953.59;104730;1305;61253;-82
2022/07/23 06:39:13;;;;;;;;;;;;;;;29.71;38.41;100956.63;104773;1306;61330;-82
2022/07/23 06:41:38;;;;;;;;;;;;;;;29.71;38.39;100956.63;104827;1306;61266;-82
2022/07/23 06:44:04;;;;;;;;;;;;;;;29.72;38.54;100955.27;104637;1305;61237;-82
2022/07/23 06:46:29;;;;;;;;;;;;;;;29.72;38.39;100949.83;104813;1306;61452;-82
2022/07/23 06:48:55;;;;;;;;;;;;;;;29.73;38.44;100948.81;104797;1306;61384;-82
2022/07/23 06:51:21;;;;;;;;;;;;;;;29.73;38.39;100943.91;104860;1305;61257;-82
2022/07/23 06:53:46;;;;;;;;;;;;;;;29.74;38.39;100950.02;104872;1306;61276;-81
2022/07/23 06:56:12;;;;;;;;;;;;;;;29.74;38.54;100949.67;104793;1306;61368;-81
2022/07/23 06:58:37;;;;;;;;;;;;;;;29.74;38.38;100952.54;104841;1306;61375;-82
2022/07/23 07:01:03;;;;;;;;;;;;;;;29.75;38.31;100951.91;104847;1306;72891;-82
2022/07/23 07:03:28;;;;;;;;;;;;;;;29.75;38.36;100953.88;104677;1306;61380;-82
2022/07/23 07:05:54;;;;;;;;;;;;;;;29.75;38.31;100948.41;104771;1306;61384;-82
2022/07/23 07:08:20;;;;;;;;;;;;;;;29.75;38.50;100953.83;104784;1306;61262;-82
2022/07/23 07:10:45;;;;;;;;;;;;;;;29.76;38.47;100954.11;104813;1304;61297;-82
2022/07/23 07:13:11;;;;;;;;;;;;;;;29.76;38.44;100955.23;104620;1306;73883;-82
2022/07/23 07:15:36;;;;;;;;;;;;;;;29.76;38.52;100956.48;104841;1306;61278;-82
2022/07/23 07:18:02;;;;;;;;;;;;;;;29.77;38.30;100956.05;104665;1306;61300;-82
2022/07/23 07:20:27;;;;;;;;;;;;;;;29.77;38.57;100952.60;104825;1306;61259;-82
2022/07/23 07:22:53;;;;;;;;;;;;;;;29.77;38.29;100952.23;104824;1305;61271;-82
2022/07/23 07:25:18;;;;;;;;;;;;;;;29.77;38.54;100951.52;104867;1305;74206;-82
2022/07/23 07:27:44;;;;;;;;;;;;;;;29.78;38.50;100953.09;104757;1306;61426;-82
2022/07/23 07:30:09;;;;;;;;;;;;;;;29.78;38.44;100952.35;104763;1306;61267;-82
2022/07/23 07:32:36;;;;;;;;;;;;;;;29.78;38.39;100947.23;104825;1306;61358;-82
2022/07/23 07:35:05;;;;;;;;;;;;;;;29.78;38.60;100944.31;104854;1306;61273;-82
2022/07/23 07:37:30;;;;;;;;;;;;;;;29.79;38.39;100946.59;104832;1305;61277;-82
2022/07/23 07:39:56;;;;;;;;;;;;;;;29.79;38.49;100944.20;104858;1306;61374;-82
2022/07/23 07:42:21;;;;;;;;;;;;;;;29.79;38.46;100940.64;104829;1304;61278;-82
2022/07/23 07:44:47;;;;;;;;;;;;;;;29.79;38.49;100934.64;104696;1306;59503;-82
2022/07/23 07:47:15;;;;;;;;;;;;;;;29.79;38.52;100935.20;104864;1306;61255;-82
2022/07/23 07:49:43;;;;;;;;;;;;;;;29.79;38.37;100939.15;104897;1306;75944;-82
2022/07/23 07:52:09;;;;;;;;;;;;;;;29.80;38.70;100935.64;104856;1306;61292;-82
2022/07/23 07:54:34;;;;;;;;;;;;;;;29.80;38.36;100938.48;104852;1305;61252;-82
2022/07/23 07:57:00;;;;;;;;;;;;;;;29.80;38.37;100928.49;104825;1306;61271;-82
2022/07/23 07:59:25;;;;;;;;;;;;;;;29.80;38.71;100929.59;104842;1306;61419;-82
2022/07/23 08:01:52;;;;;;;;;;;;;;;29.80;38.61;100929.75;104847;1305;61345;-82
2022/07/23 08:04:17;;;;;;;;;;;;;;;29.81;38.63;100927.35;104879;1305;61362;-82
2022/07/23 08:06:42;;;;;;;;;;;;;;;29.80;38.53;100926.12;104843;1306;61232;-82
2022/07/23 08:09:08;;;;;;;;;;;;;;;29.81;38.47;100924.80;104830;1305;61292;-82
2022/07/23 08:11:33;;;;;;;;;;;;;;;29.81;38.51;100927.31;104845;1306;61712;-82
2022/07/23 08:13:59;;;;;;;;;;;;;;;29.81;38.56;100927.15;104848;1306;61385;-82
2022/07/23 08:16:24;;;;;;;;;;;;;;;29.81;38.51;100923.30;104903;1305;61240;-82
2022/07/23 08:18:50;;;;;;;;;;;;;;;29.81;38.57;100921.00;104828;1306;61281;-82
2022/07/23 08:21:15;;;;;;;;;;;;;;;29.81;38.62;100918.02;104837;1305;61352;-82
2022/07/23 08:23:41;;;;;;;;;;;;;;;29.82;38.62;100911.63;104826;1304;61256;-82
2022/07/23 08:26:06;;;;;;;;;;;;;;;29.81;38.76;100912.94;104847;1305;61327;-82
2022/07/23 08:28:35;;;;;;;;;;;;;;;29.81;38.59;100912.04;104891;1305;61327;-82
2022/07/23 08:31:00;;;;;;;;;;;;;;;29.82;38.68;100908.03;104836;1306;61302;-82
2022/07/23 08:33:26;;;;;;;;;;;;;;;29.82;38.70;100908.71;104829;1306;61340;-82
2022/07/23 08:35:56;;;;;;;;;;;;;;;29.81;38.48;100907.48;104793;1306;61284;-83
2022/07/23 08:38:21;;;;;;;;;;;;;;;29.81;38.54;100909.66;104802;1306;61265;-82
2022/07/23 08:40:50;;;;;;;;;;;;;;;29.82;38.36;100911.05;104585;1306;61373;-82
2022/07/23 08:43:18;;;;;;;;;;;;;;;29.82;38.66;100903.81;104666;1304;73919;-82
2022/07/23 08:45:44;;;;;;;;;;;;;;;29.83;38.59;100900.86;104643;1304;74285;-82
2022/07/23 08:48:14;;;;;;;;;;;;;;;29.83;38.69;100900.05;104736;1306;61329;-82
2022/07/23 08:50:44;;;;;;;;;;;;;;;29.83;38.61;100903.66;104763;1305;61159;-82
2022/07/23 08:53:09;;;;;;;;;;;;;;;29.84;38.58;100901.58;104772;1306;73855;-84
2022/07/23 08:55:35;;;;;;;;;;;;;;;29.84;38.47;100900.66;104789;1305;61934;-83
2022/07/23 08:58:00;;;;;;;;;;;;;;;29.85;38.31;100895.91;104644;1306;61197;-83
2022/07/23 09:00:25;;;;;;;;;;;;;;;29.85;38.44;100894.23;104680;1305;61268;-82
2022/07/23 09:02:51;;;;;;;;;;;;;;;29.85;38.35;100892.23;104791;1305;61402;-82
2022/07/23 09:05:16;;;;;;;;;;;;;;;29.85;38.33;100899.64;104762;1305;61153;-81
2022/07/23 09:08:01;;;;;;;;;;;;;;;29.85;38.55;100893.30;104803;1306;61265;-81
2022/07/23 09:10:26;;;;;;;;;;;;;;;29.86;38.42;100894.15;104795;1306;61256;-81
2022/07/23 09:12:52;;;;;;;;;;;;;;;29.86;38.43;100893.40;104808;1306;61348;-81
2022/07/23 09:15:18;;;;;;;;;;;;;;;29.86;38.20;100888.89;104820;1306;61201;-81
2022/07/23 09:17:44;;;;;;;;;;;;;;;29.86;38.49;100883.23;104809;1305;61959;-81
2022/07/23 09:20:09;;;;;;;;;;;;;;;29.86;38.43;100885.96;104848;1305;61245;-81
2022/07/23 09:22:35;;;;;;;;;;;;;;;29.86;38.34;100887.45;104864;1306;61279;-81
2022/07/23 09:25:04;;;;;;;;;;;;;;;29.86;38.32;100887.39;104720;1306;61456;-83
2022/07/23 09:27:48;;;;;;;;;;;;;;;29.86;38.24;100880.38;104856;1305;72725;-82
2022/07/23 09:30:14;;;;;;;;;;;;;;;29.86;38.40;100878.20;104840;1305;75225;-81
2022/07/23 09:32:39;;;;;;;;;;;;;;;29.85;38.42;100875.67;104847;1305;60475;-81
2022/07/23 09:35:05;;;;;;;;;;;;;;;29.85;38.22;100872.23;104862;1306;61398;-81
2022/07/23 09:37:30;;;;;;;;;;;;;;;29.86;38.34;100874.04;104846;1305;61246;-81
2022/07/23 09:40:03;;;;;;;;;;;;;;;29.85;38.51;100873.86;104894;1306;61297;-81
2022/07/23 09:42:28;;;;;;;;;;;;;;;29.85;38.25;100881.14;104878;1306;75848;-81
2022/07/23 09:44:55;;;;;;;;;;;;;;;29.85;38.35;100879.89;104864;1305;61271;-81
2022/07/23 09:47:21;;;;;;;;;;;;;;;29.85;38.33;100877.51;104752;1306;61288;-81
2022/07/23 09:50:00;;;;;;;;;;;;;;;29.85;38.40;100873.20;104860;1305;61224;-83
2022/07/23 09:52:27;;;;;;;;;;;;;;;29.85;38.34;100873.75;104849;1305;73821;-84
2022/07/23 09:54:57;;;;;;;;;;;;;;;29.85;38.44;100868.63;104860;1306;61276;-84
2022/07/23 09:57:22;;;;;;;;;;;;;;;29.85;38.30;100868.64;104851;1306;61403;-84
2022/07/23 09:59:48;;;;;;;;;;;;;;;29.85;38.50;100865.39;104833;1305;61288;-84
2022/07/23 10:02:14;;;;;;;;;;;;;;;29.85;38.25;100864.48;104835;1306;61138;-84
2022/07/23 10:04:41;;;;;;;;;;;;;;;29.85;38.18;100859.23;104848;1304;61292;-84
2022/07/23 10:07:10;;;;;;;;;;;;;;;29.85;38.25;100857.97;104729;1305;62347;-84
2022/07/23 10:09:37;;;;;;;;;;;;;;;29.85;38.26;100858.89;104848;1306;72743;-84
2022/07/23 10:12:21;;;;;;;;;;;;;;;29.85;38.28;100853.42;104833;1305;74569;-84
2022/07/23 10:14:47;;;;;;;;;;;;;;;29.84;38.35;100853.11;104844;1306;61249;-84
2022/07/23 10:17:13;;;;;;;;;;;;;;;29.84;38.40;100850.77;104834;1305;61666;-84
2022/07/23 10:19:39;;;;;;;;;;;;;;;29.84;38.26;100848.08;104820;1305;62152;-84
2022/07/23 10:22:06;;;;;;;;;;;;;;;29.84;38.37;100844.47;104852;1305;59328;-84
2022/07/23 10:24:37;;;;;;;;;;;;;;;29.84;38.43;100845.70;104848;1306;61242;-84
2022/07/23 10:27:18;;;;;;;;;;;;;;;29.84;38.48;100841.34;104809;1305;61366;-84
2022/07/23 10:29:52;;;;;;;;;;;;;;;29.84;38.43;100840.66;104824;1306;71803;-84
2022/07/23 10:32:24;;;;;;;;;;;;;;;29.84;38.38;100841.04;104826;1306;74705;-84
2022/07/23 10:35:08;;;;;;;;;;;;;;;29.84;38.53;100835.59;104838;1305;61284;-84
2022/07/23 10:37:37;;;;;;;;;;;;;;;29.84;38.33;100835.21;104815;1305;61303;-84
2022/07/23 10:40:19;;;;;;;;;;;;;;;29.83;38.29;100831.83;104836;1305;72971;-84
2022/07/23 10:42:44;;;;;;;;;;;;;;;29.83;38.31;100829.81;104807;1305;75658;-84
2022/07/23 10:45:26;;;;;;;;;;;;;;;29.84;38.35;100824.16;104857;1306;62131;-84
2022/07/23 10:47:52;;;;;;;;;;;;;;;29.83;38.27;100826.92;104689;1306;61362;-84
2022/07/23 10:50:24;;;;;;;;;;;;;;;29.83;38.28;100826.38;104680;1304;61319;-81
2022/07/23 10:53:06;;;;;;;;;;;;;;;29.83;38.37;100828.21;104794;1306;75883;-81
2022/07/23 10:55:31;;;;;;;;;;;;;;;29.84;38.39;100823.45;104811;1306;61244;-82
2022/07/23 10:57:57;;;;;;;;;;;;;;;29.84;38.38;100818.17;104887;1306;61263;-82
2022/07/23 11:00:23;;;;;;;;;;;;;;;29.84;38.45;100812.02;104806;1305;61277;-82
2022/07/23 11:03:12;;;;;;;;;;;;;;;29.84;38.42;100813.11;104811;1305;61295;-81
2022/07/23 11:05:45;;;;;;;;;;;;;;;29.84;38.34;100802.77;104572;1306;61253;-84
2022/07/23 11:08:14;;;;;;;;;;;;;;;29.84;38.41;100799.85;104653;1305;61189;-84
2022/07/23 11:10:44;;;;;;;;;;;;;;;29.84;38.41;100795.63;104724;1306;72668;-84
2022/07/23 11:13:21;;;;;;;;;;;;;;;29.85;38.38;100794.68;104716;1305;76083;-84
2022/07/23 11:16:05;;;;;;;;;;;;;;;29.85;38.31;100793.23;104779;1305;61414;-84
2022/07/23 11:19:01;;;;;;;;;;;;;;;29.85;38.44;100790.12;104810;1305;61238;-84
2022/07/23 11:21:49;;;;;;;;;;;;;;;29.85;38.30;100789.71;104380;1311;72765;-84
2022/07/23 11:24:16;;;;;;;;;;;;;;;29.85;38.32;100788.45;103969;1317;75982;-84
2022/07/23 11:26:49;;;;;;;;;;;;;;;29.85;38.37;100784.99;103849;1318;61242;-84
2022/07/23 11:29:27;;;;;;;;;;;;;;;29.85;38.36;100781.95;103856;1318;61313;-84
2022/07/23 11:32:11;;;;;;;;;;;;;;;29.85;38.35;100777.41;103967;1317;73846;-84
2022/07/23 11:34:40;;;;;;;;;;;;;;;29.85;38.48;100778.29;103928;1318;75811;-84
2022/07/23 11:37:12;;;;;;;;;;;;;;;29.85;38.40;100774.67;103680;1318;61311;-84
2022/07/23 11:39:37;;;;;;;;;;;;;;;29.85;38.44;100774.14;103870;1318;61360;-84
2022/07/23 11:42:06;;;;;;;;;;;;;;;29.85;38.31;100775.39;103989;1318;61313;-84
2022/07/23 11:44:32;;;;;;;;;;;;;;;29.85;38.46;100767.27;103860;1318;75663;-84
2022/07/23 11:46:59;;;;;;;;;;;;;;;29.85;38.39;100763.42;103971;1318;61169;-84
2022/07/23 11:49:24;;;;;;;;;;;;;;;29.85;38.36;100758.39;103864;1317;61313;-84
2022/07/23 11:52:03;;;;;;;;;;;;;;;29.85;38.31;100755.49;103984;1317;61578;-84
2022/07/23 11:54:29;;;;;;;;;;;;;;;29.85;38.58;100756.55;103920;1318;75570;-84
2022/07/23 11:56:58;;;;;;;;;;;;;;;29.85;38.36;100755.26;103875;1318;61306;-84
2022/07/23 11:59:24;;;;;;;;;;;;;;;29.85;38.35;100752.73;104226;1312;61263;-84
2022/07/23 12:02:16;;;;;;;;;;;;;;;29.85;38.35;100751.08;104517;1306;61358;-84
2022/07/23 12:04:42;;;;;;;;;;;;;;;29.85;38.37;100749.41;104796;1306;75828;-84
2022/07/23 12:07:30;;;;;;;;;;;;;;;29.85;38.29;100748.33;104853;1304;61316;-84
2022/07/23 12:09:57;;;;;;;;;;;;;;;29.85;38.52;100743.43;104858;1306;61293;-84
2022/07/23 12:12:22;;;;;;;;;;;;;;;29.87;38.40;100748.79;104870;1306;61104;-84
2022/07/23 12:14:52;;;;;;;;;;;;;;;29.86;38.49;100743.75;104826;1306;61265;-82
2022/07/23 12:17:18;;;;;;;;;;;;;;;29.86;38.57;100740.45;104874;1306;61291;-82
2022/07/23 12:19:43;;;;;;;;;;;;;;;29.87;38.39;100740.77;104815;1306;61281;-82
2022/07/23 12:22:09;;;;;;;;;;;;;;;29.87;38.38;100735.83;104805;1305;62024;-81
2022/07/23 12:24:53;;;;;;;;;;;;;;;29.87;38.30;100733.28;104869;1304;61386;-82